createdAt,value
2023-03-24T00:01:28.800Z,8.73
2023-03-24T00:04:31.620Z,8.75
2023-03-24T00:07:35.374Z,10.10
2023-03-24T00:10:38.195Z,9.37
2023-03-24T00:13:41.732Z,9.20
2023-03-24T00:16:45.564Z,9.98
2023-03-24T00:19:48.417Z,9.43
2023-03-24T00:22:57.325Z,9.47
2023-03-24T00:26:03.295Z,9.73
2023-03-24T00:29:09.096Z,10.20
2023-03-24T00:32:11.839Z,9.77
2023-03-24T00:35:16.498Z,9.95
2023-03-24T00:38:19.735Z,10.63
2023-03-24T00:41:25.095Z,10.30
2023-03-24T00:44:27.904Z,11.05
2023-03-24T00:47:32.331Z,12.23
2023-03-24T00:50:35.056Z,11.55
2023-03-24T00:53:43.628Z,12.23
2023-03-24T00:56:49.808Z,13.63
2023-03-24T00:59:54.624Z,13.23
2023-03-24T01:02:58.528Z,13.75
2023-03-24T01:06:04.030Z,14.15
2023-03-24T01:09:07.578Z,13.43
2023-03-24T01:12:10.285Z,13.50
2023-03-24T01:15:17.390Z,12.68
2023-03-24T01:18:20.830Z,12.60
2023-03-24T01:21:25.522Z,11.77
2023-03-24T01:24:28.251Z,11.93
2023-03-24T01:27:31.892Z,11.13
2023-03-24T01:30:34.710Z,12.85
2023-03-24T01:33:38.346Z,11.93
2023-03-24T01:36:41.094Z,12.30
2023-03-24T01:39:43.824Z,11.17
2023-03-24T01:42:46.742Z,11.17
2023-03-24T01:46:15.641Z,11.13
2023-03-24T01:49:18.425Z,11.05
2023-03-24T01:52:32.172Z,10.93
2023-03-24T01:55:34.941Z,11.30
2023-03-24T01:58:43.933Z,10.70
2023-03-24T02:02:03.526Z,10.95
2023-03-24T02:05:16.279Z,11.82
2023-03-24T02:08:55.458Z,10.25
2023-03-24T02:11:59.421Z,11.77
2023-03-24T02:15:03.894Z,11.20
2023-03-24T02:18:30.914Z,11.23
2023-03-24T02:21:45.598Z,11.23
2023-03-24T02:25:07.033Z,15.25
2023-03-24T02:28:15.728Z,13.30
2023-03-24T02:32:05.423Z,13.70
2023-03-24T02:35:38.479Z,12.88
2023-03-24T02:38:59.358Z,11.75
2023-03-24T02:42:04.977Z,12.38
2023-03-24T02:45:19.966Z,12.60
2023-03-24T02:48:43.048Z,11.63
2023-03-24T02:52:05.792Z,10.63
2023-03-24T02:55:19.392Z,10.73
2023-03-24T02:58:59.030Z,11.68
2023-03-24T03:02:08.818Z,11.43
2023-03-24T03:05:35.844Z,10.93
2023-03-24T03:08:39.763Z,11.55
2023-03-24T03:11:47.106Z,11.02
2023-03-24T03:14:55.061Z,11.82
2023-03-24T03:18:07.519Z,10.47
2023-03-24T03:21:14.451Z,10.40
2023-03-24T03:24:27.376Z,10.25
2023-03-24T03:27:38.967Z,10.27
2023-03-24T03:30:46.524Z,10.75
2023-03-24T03:33:58.609Z,9.40
2023-03-24T03:37:14.658Z,9.10
2023-03-24T03:40:27.810Z,8.82
2023-03-24T03:43:37.890Z,9.27
2023-03-24T03:46:42.254Z,10.35
2023-03-24T03:49:50.681Z,9.27
2023-03-24T03:52:53.786Z,9.43
2023-03-24T03:55:57.136Z,10.15
2023-03-24T03:59:00.520Z,9.68
2023-03-24T04:02:28.366Z,9.27
2023-03-24T04:05:50.884Z,9.43
2023-03-24T04:09:31.952Z,10.83
2023-03-24T04:13:05.776Z,8.55
2023-03-24T04:17:05.146Z,8.80
2023-03-24T04:20:34.457Z,8.82
2023-03-24T04:23:44.730Z,9.27
2023-03-24T04:27:09.518Z,8.97
2023-03-24T04:30:23.408Z,9.45
2023-03-24T04:33:43.402Z,9.60
2023-03-24T04:36:54.561Z,10.45
2023-03-24T04:40:13.066Z,10.37
2023-03-24T04:43:18.129Z,12.07
2023-03-24T04:46:21.727Z,11.35
2023-03-24T04:49:30.897Z,10.02
2023-03-24T04:52:33.549Z,9.98
2023-03-24T04:55:50.224Z,11.17
2023-03-24T04:59:03.918Z,11.50
2023-03-24T05:02:07.584Z,10.52
2023-03-24T05:05:13.077Z,9.88
2023-03-24T05:08:20.824Z,9.60
2023-03-24T05:11:26.110Z,8.77
2023-03-24T05:14:36.710Z,10.27
2023-03-24T05:17:41.384Z,10.55
2023-03-24T05:20:44.045Z,11.43
2023-03-24T05:23:53.337Z,12.90
2023-03-24T05:26:55.996Z,12.07
2023-03-24T05:29:58.920Z,12.40
2023-03-24T05:33:04.386Z,11.82
2023-03-24T05:36:07.409Z,10.65
2023-03-24T05:39:10.514Z,11.82
2023-03-24T05:42:23.119Z,11.93
2023-03-24T05:45:26.180Z,15.70
2023-03-24T05:48:29.673Z,17.52
2023-03-24T05:51:46.604Z,18.63
2023-03-24T05:54:52.277Z,27.25
2023-03-24T05:57:59.925Z,21.80
2023-03-24T06:01:25.459Z,16.37
2023-03-24T06:04:36.007Z,15.13
2023-03-24T06:07:48.872Z,20.17
2023-03-24T06:10:53.606Z,21.65
2023-03-24T06:14:00.306Z,17.43
2023-03-24T06:17:08.129Z,12.87
2023-03-24T06:20:15.972Z,13.75
2023-03-24T06:23:27.940Z,13.85
2023-03-24T06:26:44.925Z,14.35
2023-03-24T06:29:50.170Z,15.03
2023-03-24T06:32:52.954Z,15.80
2023-03-24T06:36:01.913Z,14.27
2023-03-24T06:39:06.660Z,12.80
2023-03-24T06:42:10.018Z,12.57
2023-03-24T06:45:12.900Z,12.80
2023-03-24T06:48:15.582Z,12.10
2023-03-24T06:51:18.489Z,11.00
2023-03-24T06:54:22.435Z,10.23
2023-03-24T06:57:25.281Z,9.70
2023-03-24T07:00:48.406Z,8.13
2023-03-24T07:04:02.703Z,7.90
2023-03-24T07:10:50.588Z,6.00
2023-03-24T07:13:53.233Z,6.63
2023-03-24T07:16:56.200Z,7.20
2023-03-24T07:20:20.391Z,5.60
2023-03-24T07:23:27.748Z,5.93
2023-03-24T07:26:41.777Z,5.25
2023-03-24T07:29:52.925Z,4.57
2023-03-24T07:33:13.010Z,4.40
2023-03-24T07:36:18.648Z,5.43
2023-03-24T07:39:21.366Z,5.40
2023-03-24T07:42:24.101Z,4.00
2023-03-24T07:45:46.277Z,5.45
2023-03-24T07:48:49.631Z,4.10
2023-03-24T07:51:53.950Z,4.07
2023-03-24T07:55:07.198Z,4.60
2023-03-24T07:58:27.467Z,4.00
2023-03-24T08:01:56.712Z,4.07
2023-03-24T08:05:22.774Z,4.67
2023-03-24T08:08:45.066Z,4.43
2023-03-24T08:11:47.690Z,4.38
2023-03-24T08:14:50.502Z,4.78
2023-03-24T08:17:53.461Z,4.88
2023-03-24T08:20:58.774Z,4.70
2023-03-24T08:24:01.341Z,4.90
2023-03-24T08:27:06.358Z,4.50
2023-03-24T08:30:13.486Z,4.93
2023-03-24T08:33:16.662Z,4.70
2023-03-24T08:36:19.347Z,5.23
2023-03-24T08:39:22.017Z,4.43
2023-03-24T08:42:25.944Z,4.70
2023-03-24T08:45:30.751Z,4.82
2023-03-24T08:48:34.073Z,4.70
2023-03-24T08:51:37.224Z,4.30
2023-03-24T08:54:39.955Z,4.33
2023-03-24T08:57:42.540Z,4.90
2023-03-24T09:00:46.751Z,5.13
2023-03-24T09:03:49.552Z,4.75
2023-03-24T09:06:53.724Z,4.43
2023-03-24T09:09:56.436Z,4.50
2023-03-24T09:12:59.025Z,4.70
2023-03-24T09:16:03.721Z,5.10
2023-03-24T09:19:06.378Z,4.65
2023-03-24T09:22:09.033Z,4.63
2023-03-24T09:25:14.367Z,4.33
2023-03-24T09:28:17.072Z,3.70
2023-03-24T09:31:19.693Z,3.92
2023-03-24T09:34:22.282Z,3.00
2023-03-24T09:37:24.887Z,2.57
2023-03-24T09:40:29.804Z,3.13
2023-03-24T09:44:00.262Z,3.08
2023-03-24T09:47:17.062Z,3.17
2023-03-24T09:50:34.374Z,2.60
2023-03-24T09:54:00.422Z,3.33
2023-03-24T09:57:04.152Z,3.07
2023-03-24T10:00:28.851Z,2.58
2023-03-24T10:03:31.739Z,2.53
2023-03-24T10:06:40.173Z,2.25
2023-03-24T10:09:44.549Z,2.83
2023-03-24T10:12:49.586Z,2.80
2023-03-24T10:16:19.874Z,2.38
2023-03-24T10:19:48.719Z,2.35
2023-03-24T10:22:54.536Z,2.35
2023-03-24T10:25:59.950Z,2.30
2023-03-24T10:29:23.218Z,3.10
2023-03-24T10:32:27.979Z,2.30
2023-03-24T10:35:37.476Z,2.08
2023-03-24T10:38:40.167Z,2.80
2023-03-24T10:41:44.064Z,3.00
2023-03-24T10:44:48.518Z,2.20
2023-03-24T10:47:52.497Z,2.75
2023-03-24T10:50:58.849Z,2.25
2023-03-24T10:54:16.947Z,2.60
2023-03-24T10:57:19.653Z,2.07
2023-03-24T11:00:32.545Z,2.50
2023-03-24T11:03:38.119Z,2.35
2023-03-24T11:07:04.353Z,2.28
2023-03-24T11:10:10.204Z,2.63
2023-03-24T11:13:26.581Z,2.43
2023-03-24T11:16:47.729Z,1.97
2023-03-24T11:19:55.291Z,2.00
2023-03-24T11:23:04.503Z,2.35
2023-03-24T11:26:30.085Z,1.90
2023-03-24T11:29:40.213Z,2.40
2023-03-24T11:32:47.197Z,2.10
2023-03-24T11:35:59.050Z,2.20
2023-03-24T11:39:20.122Z,2.40
2023-03-24T11:42:27.616Z,2.42
2023-03-24T11:45:36.156Z,2.70
2023-03-24T11:48:51.113Z,2.07
2023-03-24T11:51:54.977Z,2.30
2023-03-24T11:54:57.691Z,2.70
2023-03-24T11:58:11.710Z,2.30
2023-03-24T12:01:20.346Z,2.23
2023-03-24T12:04:55.337Z,2.23
2023-03-24T12:08:09.946Z,2.75
2023-03-24T12:11:27.534Z,2.38
2023-03-24T12:14:39.469Z,2.67
2023-03-24T12:17:47.670Z,2.63
2023-03-24T12:21:08.619Z,2.07
2023-03-24T12:24:42.302Z,2.00
2023-03-24T12:28:03.247Z,2.35
2023-03-24T12:31:39.845Z,2.40
2023-03-24T12:35:04.201Z,1.93
2023-03-24T12:38:25.020Z,1.90
2023-03-24T12:41:27.519Z,2.58
2023-03-24T12:45:03.953Z,2.45
2023-03-24T12:49:02.797Z,2.10
2023-03-24T12:52:20.547Z,2.03
2023-03-24T12:55:31.103Z,2.30
2023-03-24T12:58:58.806Z,2.10
2023-03-24T13:02:20.873Z,2.38
2023-03-24T13:05:35.890Z,2.10
2023-03-24T13:08:41.618Z,2.47
2023-03-24T13:11:58.812Z,2.63
2023-03-24T13:15:18.623Z,2.38
2023-03-24T13:18:42.492Z,2.53
2023-03-24T13:21:45.581Z,2.08
2023-03-24T13:24:48.689Z,2.63
2023-03-24T13:27:53.443Z,2.13
2023-03-24T13:30:56.895Z,2.42
2023-03-24T13:34:00.821Z,1.98
2023-03-24T13:37:06.737Z,2.35
2023-03-24T13:40:30.086Z,2.30
2023-03-24T13:43:34.049Z,2.40
2023-03-24T13:46:41.282Z,2.83
2023-03-24T13:50:02.645Z,2.22
2023-03-24T13:53:13.013Z,2.30
2023-03-24T13:56:27.744Z,3.00
2023-03-24T13:59:34.192Z,3.13
2023-03-24T14:02:50.633Z,2.75
2023-03-24T14:06:02.621Z,1.95
2023-03-24T14:09:06.230Z,2.80
2023-03-24T14:12:16.742Z,2.33
2023-03-24T14:15:30.032Z,2.70
2023-03-24T14:18:32.789Z,3.00
2023-03-24T14:21:37.469Z,2.88
2023-03-24T14:24:46.303Z,2.58
2023-03-24T14:27:51.434Z,2.80
2023-03-24T14:31:13.488Z,2.37
2023-03-24T14:34:25.505Z,2.10
2023-03-24T14:37:29.124Z,2.53
2023-03-24T14:40:43.957Z,2.13
2023-03-24T14:43:46.678Z,3.00
2023-03-24T14:46:51.777Z,3.77
2023-03-24T14:49:55.946Z,2.97
2023-03-24T14:53:01.403Z,2.55
2023-03-24T14:56:06.573Z,3.03
2023-03-24T14:59:36.833Z,2.67
2023-03-24T15:02:45.269Z,2.93
2023-03-24T15:05:47.882Z,3.33
2023-03-24T15:08:52.394Z,3.20
2023-03-24T15:11:57.184Z,5.53
2023-03-24T15:15:00.993Z,3.30
2023-03-24T15:18:04.270Z,2.80
2023-03-24T15:21:37.480Z,2.90
2023-03-24T15:24:43.529Z,2.35
2023-03-24T15:27:51.164Z,2.17
2023-03-24T15:30:56.273Z,2.67
2023-03-24T15:34:23.267Z,2.83
2023-03-24T15:37:35.829Z,3.00
2023-03-24T15:40:41.275Z,2.70
2023-03-24T15:43:46.299Z,4.05
2023-03-24T15:46:49.330Z,3.00
2023-03-24T15:49:56.463Z,2.90
2023-03-24T15:53:05.532Z,3.00
2023-03-24T15:56:25.115Z,2.92
2023-03-24T15:59:37.282Z,4.00
2023-03-24T16:05:51.726Z,2.80
2023-03-24T16:08:54.466Z,4.85
2023-03-24T16:11:57.126Z,4.50
2023-03-24T16:15:00.052Z,3.70
2023-03-24T16:18:03.686Z,3.27
2023-03-24T16:21:12.645Z,10.00
2023-03-24T16:24:15.392Z,6.38
2023-03-24T16:27:18.029Z,3.60
2023-03-24T16:30:25.182Z,3.33
2023-03-24T16:33:28.272Z,6.43
2023-03-24T16:36:31.022Z,8.00
2023-03-24T16:39:33.611Z,7.07
2023-03-24T16:42:36.140Z,2.88
2023-03-24T16:45:38.863Z,3.60
2023-03-24T16:48:42.196Z,3.50
2023-03-24T16:51:45.505Z,6.43
2023-03-24T16:54:48.130Z,6.43
2023-03-24T16:57:50.679Z,5.28
2023-03-24T17:00:53.633Z,5.57
2023-03-24T17:03:58.759Z,5.50
2023-03-24T17:07:01.485Z,3.37
2023-03-24T17:10:05.062Z,3.20
2023-03-24T17:13:07.678Z,3.15
2023-03-24T17:16:10.627Z,5.18
2023-03-24T17:19:14.870Z,7.33
2023-03-24T17:22:18.980Z,8.27
2023-03-24T17:25:23.164Z,9.73
2023-03-24T17:28:26.014Z,21.67
2023-03-24T17:31:28.830Z,14.18
2023-03-24T17:34:32.024Z,12.83
2023-03-24T17:37:34.632Z,5.57
2023-03-24T17:40:37.364Z,28.15
2023-03-24T17:43:40.502Z,38.28
2023-03-24T17:46:43.240Z,37.00
2023-03-24T17:49:46.266Z,27.80
2023-03-24T17:52:49.221Z,4.50
2023-03-24T17:55:56.510Z,3.38
2023-03-24T17:58:59.278Z,3.47
2023-03-24T18:02:02.002Z,3.80
2023-03-24T18:05:05.918Z,5.43
2023-03-24T18:08:08.939Z,7.10
2023-03-24T18:11:14.531Z,7.75
2023-03-24T18:14:17.283Z,5.90
2023-03-24T18:17:20.147Z,8.52
2023-03-24T18:20:23.077Z,11.50
2023-03-24T18:23:25.908Z,13.20
2023-03-24T18:26:29.835Z,17.83
2023-03-24T18:29:32.450Z,22.60
2023-03-24T18:32:36.066Z,24.20
2023-03-24T18:35:40.774Z,49.00
2023-03-24T18:38:44.189Z,31.17
2023-03-24T18:41:48.132Z,35.72
2023-03-24T18:44:50.999Z,16.17
2023-03-24T18:47:53.852Z,7.47
2023-03-24T18:50:56.631Z,5.43
2023-03-24T18:53:59.484Z,4.70
2023-03-24T18:57:02.466Z,3.72
2023-03-24T19:00:09.862Z,4.03
2023-03-24T19:03:13.413Z,6.45
2023-03-24T19:06:16.696Z,5.57
2023-03-24T19:09:22.209Z,5.07
2023-03-24T19:12:25.151Z,5.28
2023-03-24T19:15:29.931Z,4.50
2023-03-24T19:18:32.744Z,4.55
2023-03-24T19:21:35.852Z,3.70
2023-03-24T19:24:38.669Z,3.67
2023-03-24T19:27:44.707Z,4.50
2023-03-24T19:30:47.565Z,4.10
2023-03-24T19:33:52.415Z,5.10
2023-03-24T19:36:56.561Z,4.83
2023-03-24T19:40:00.217Z,4.73
2023-03-24T19:43:03.080Z,4.30
2023-03-24T19:46:06.652Z,4.10
2023-03-24T19:49:09.585Z,16.48
2023-03-24T19:52:12.494Z,7.50
2023-03-24T19:55:15.645Z,5.80
2023-03-24T19:58:18.636Z,4.10
2023-03-24T20:01:21.643Z,4.97
2023-03-24T20:04:25.852Z,6.10
2023-03-24T20:07:28.940Z,5.40
2023-03-24T20:10:31.772Z,5.47
2023-03-24T20:13:35.756Z,5.78
2023-03-24T20:16:38.585Z,6.22
2023-03-24T20:19:41.569Z,4.93
2023-03-24T20:22:48.902Z,4.93
2023-03-24T20:25:52.262Z,4.73
2023-03-24T20:28:55.531Z,4.25
2023-03-24T20:31:58.333Z,4.25
2023-03-24T20:35:01.338Z,4.68
2023-03-24T20:38:04.158Z,4.50
2023-03-24T20:41:08.062Z,4.83
2023-03-24T20:44:11.642Z,5.13
2023-03-24T20:47:14.525Z,4.85
2023-03-24T20:50:17.364Z,5.88
2023-03-24T20:53:20.347Z,6.47
2023-03-24T20:56:23.146Z,7.00
2023-03-24T20:59:26.347Z,5.82
2023-03-24T21:02:31.838Z,7.20
2023-03-24T21:05:34.472Z,7.07
2023-03-24T21:08:37.772Z,9.10
2023-03-24T21:11:41.390Z,9.57
2023-03-24T21:14:46.891Z,8.90
2023-03-24T21:17:49.814Z,8.25
2023-03-24T21:20:57.546Z,9.88
2023-03-24T21:24:00.655Z,10.00
2023-03-24T21:27:03.420Z,9.00
2023-03-24T21:30:08.356Z,8.98
2023-03-24T21:33:11.392Z,11.20
2023-03-24T21:36:14.417Z,9.02
2023-03-24T21:39:17.330Z,8.30
2023-03-24T21:42:22.924Z,8.80
2023-03-24T21:45:27.689Z,8.40
2023-03-24T21:48:33.060Z,7.97
2023-03-24T21:51:37.004Z,16.73
2023-03-24T21:54:41.908Z,9.90
2023-03-24T21:57:45.651Z,8.73
2023-03-24T22:00:49.979Z,9.32
2023-03-24T22:03:54.543Z,10.73
2023-03-24T22:06:57.416Z,10.15
2023-03-24T22:10:03.468Z,10.20
2023-03-24T22:13:06.090Z,10.87
2023-03-24T22:16:08.918Z,10.23
2023-03-24T22:19:11.606Z,9.93
2023-03-24T22:22:15.101Z,11.13
2023-03-24T22:25:18.657Z,9.47
2023-03-24T22:28:21.513Z,9.23
2023-03-24T22:31:24.811Z,8.57
2023-03-24T22:34:27.852Z,8.70
2023-03-24T22:37:30.744Z,9.52
2023-03-24T22:40:34.035Z,9.43
2023-03-24T22:43:36.999Z,10.03
2023-03-24T22:46:39.744Z,9.00
2023-03-24T22:49:42.872Z,9.43
2023-03-24T22:52:45.611Z,10.00
2023-03-24T22:55:48.987Z,9.30
2023-03-24T22:58:52.016Z,10.97
2023-03-24T23:02:06.405Z,12.02
2023-03-24T23:05:12.510Z,10.98
2023-03-24T23:08:15.762Z,11.02
2023-03-24T23:11:18.336Z,12.47
2023-03-24T23:14:21.021Z,14.90
2023-03-24T23:17:24.498Z,13.18
2023-03-24T23:20:28.440Z,10.13
2023-03-24T23:23:31.749Z,10.07
2023-03-24T23:26:34.395Z,14.40
2023-03-24T23:29:40.891Z,11.77
2023-03-24T23:32:47.133Z,8.55
2023-03-24T23:35:55.534Z,8.15
2023-03-24T23:38:58.201Z,8.35
2023-03-24T23:42:00.795Z,8.00
2023-03-24T23:45:05.184Z,8.30
2023-03-24T23:48:08.049Z,8.27
2023-03-24T23:51:10.965Z,9.20
2023-03-24T23:54:13.646Z,11.93
2023-03-24T23:57:16.850Z,11.70
